sensor_id;sensor_type;location;lat;lon;timestamp;P1;durP1;ratioP1;P2;durP2;ratioP2
26696;SDS011;14312;52.614;13.496;2022-10-16T00:02:32;2.50;;;2.30;;
26696;SDS011;14312;52.614;13.496;2022-10-16T00:05:18;2.28;;;2.08;;
26696;SDS011;14312;52.614;13.496;2022-10-16T00:08:04;2.63;;;2.30;;
26696;SDS011;14312;52.614;13.496;2022-10-16T00:10:50;2.63;;;2.42;;
26696;SDS011;14312;52.614;13.496;2022-10-16T00:13:36;2.05;;;1.95;;
26696;SDS011;14312;52.614;13.496;2022-10-16T00:16:24;2.15;;;1.95;;
26696;SDS011;14312;52.614;13.496;2022-10-16T00:19:10;2.75;;;2.28;;
26696;SDS011;14312;52.614;13.496;2022-10-16T00:21:57;2.40;;;2.20;;
26696;SDS011;14312;52.614;13.496;2022-10-16T00:24:43;2.72;;;2.53;;
26696;SDS011;14312;52.614;13.496;2022-10-16T00:27:29;2.40;;;2.20;;
26696;SDS011;14312;52.614;13.496;2022-10-16T00:30:15;3.35;;;2.13;;
26696;SDS011;14312;52.614;13.496;2022-10-16T00:33:01;2.47;;;1.98;;
26696;SDS011;14312;52.614;13.496;2022-10-16T00:35:47;2.08;;;1.88;;
26696;SDS011;14312;52.614;13.496;2022-10-16T00:38:33;2.45;;;2.25;;
26696;SDS011;14312;52.614;13.496;2022-10-16T00:41:20;2.03;;;1.92;;
26696;SDS011;14312;52.614;13.496;2022-10-16T00:47:46;2.60;;;1.90;;
26696;SDS011;14312;52.614;13.496;2022-10-16T00:50:34;2.30;;;2.10;;
26696;SDS011;14312;52.614;13.496;2022-10-16T00:53:20;2.20;;;2.00;;
26696;SDS011;14312;52.614;13.496;2022-10-16T00:56:06;1.85;;;1.70;;
26696;SDS011;14312;52.614;13.496;2022-10-16T00:58:52;2.05;;;1.60;;
26696;SDS011;14312;52.614;13.496;2022-10-16T01:01:38;1.70;;;1.60;;
26696;SDS011;14312;52.614;13.496;2022-10-16T01:04:24;2.38;;;1.50;;
26696;SDS011;14312;52.614;13.496;2022-10-16T01:07:13;1.50;;;1.40;;
26696;SDS011;14312;52.614;13.496;2022-10-16T01:13:31;1.30;;;1.20;;
26696;SDS011;14312;52.614;13.496;2022-10-16T01:16:46;1.67;;;1.58;;
26696;SDS011;14312;52.614;13.496;2022-10-16T01:22:56;1.45;;;1.33;;
26696;SDS011;14312;52.614;13.496;2022-10-16T01:28:47;1.20;;;1.10;;
26696;SDS011;14312;52.614;13.496;2022-10-16T01:31:39;1.08;;;1.08;;
26696;SDS011;14312;52.614;13.496;2022-10-16T01:34:33;1.20;;;1.10;;
26696;SDS011;14312;52.614;13.496;2022-10-16T01:40:55;1.30;;;1.20;;
26696;SDS011;14312;52.614;13.496;2022-10-16T01:44:04;1.35;;;1.25;;
26696;SDS011;14312;52.614;13.496;2022-10-16T01:46:53;1.33;;;1.23;;
26696;SDS011;14312;52.614;13.496;2022-10-16T01:49:40;1.10;;;1.00;;
26696;SDS011;14312;52.614;13.496;2022-10-16T01:52:28;1.15;;;1.05;;
26696;SDS011;14312;52.614;13.496;2022-10-16T01:55:16;1.33;;;1.23;;
26696;SDS011;14312;52.614;13.496;2022-10-16T01:58:07;1.30;;;1.20;;
26696;SDS011;14312;52.614;13.496;2022-10-16T02:00:54;1.75;;;1.30;;
26696;SDS011;14312;52.614;13.496;2022-10-16T02:03:40;1.35;;;1.00;;
26696;SDS011;14312;52.614;13.496;2022-10-16T02:06:28;1.20;;;1.10;;
26696;SDS011;14312;52.614;13.496;2022-10-16T02:09:15;1.75;;;1.00;;
26696;SDS011;14312;52.614;13.496;2022-10-16T02:12:14;1.40;;;1.30;;
26696;SDS011;14312;52.614;13.496;2022-10-16T02:15:06;1.30;;;1.20;;
26696;SDS011;14312;52.614;13.496;2022-10-16T02:17:52;2.70;;;1.23;;
26696;SDS011;14312;52.614;13.496;2022-10-16T02:20:44;1.30;;;1.20;;
26696;SDS011;14312;52.614;13.496;2022-10-16T02:23:40;1.33;;;1.23;;
26696;SDS011;14312;52.614;13.496;2022-10-16T02:26:52;1.38;;;1.27;;
26696;SDS011;14312;52.614;13.496;2022-10-16T02:29:49;1.33;;;1.23;;
26696;SDS011;14312;52.614;13.496;2022-10-16T02:32:40;1.60;;;1.40;;
26696;SDS011;14312;52.614;13.496;2022-10-16T02:35:30;1.40;;;1.30;;
26696;SDS011;14312;52.614;13.496;2022-10-16T02:38:17;1.30;;;1.20;;
26696;SDS011;14312;52.614;13.496;2022-10-16T02:41:06;1.20;;;1.10;;
26696;SDS011;14312;52.614;13.496;2022-10-16T02:43:52;1.40;;;1.17;;
26696;SDS011;14312;52.614;13.496;2022-10-16T02:46:38;1.33;;;1.15;;
26696;SDS011;14312;52.614;13.496;2022-10-16T02:49:24;1.20;;;1.10;;
26696;SDS011;14312;52.614;13.496;2022-10-16T02:52:10;1.27;;;1.20;;
26696;SDS011;14312;52.614;13.496;2022-10-16T02:54:56;1.20;;;1.10;;
26696;SDS011;14312;52.614;13.496;2022-10-16T02:57:42;1.00;;;1.00;;
26696;SDS011;14312;52.614;13.496;2022-10-16T03:00:30;1.40;;;1.30;;
26696;SDS011;14312;52.614;13.496;2022-10-16T03:03:16;1.15;;;1.10;;
26696;SDS011;14312;52.614;13.496;2022-10-16T03:06:02;1.25;;;1.15;;
26696;SDS011;14312;52.614;13.496;2022-10-16T03:08:48;0.93;;;0.90;;
26696;SDS011;14312;52.614;13.496;2022-10-16T03:11:34;1.10;;;1.00;;
26696;SDS011;14312;52.614;13.496;2022-10-16T03:14:20;1.20;;;1.10;;
26696;SDS011;14312;52.614;13.496;2022-10-16T03:17:06;1.20;;;1.10;;
26696;SDS011;14312;52.614;13.496;2022-10-16T03:19:52;0.90;;;0.90;;
26696;SDS011;14312;52.614;13.496;2022-10-16T03:22:38;0.88;;;0.88;;
26696;SDS011;14312;52.614;13.496;2022-10-16T03:25:24;0.90;;;0.90;;
26696;SDS011;14312;52.614;13.496;2022-10-16T03:28:10;0.90;;;0.90;;
26696;SDS011;14312;52.614;13.496;2022-10-16T03:30:56;1.10;;;1.00;;
26696;SDS011;14312;52.614;13.496;2022-10-16T03:33:41;0.90;;;0.90;;
26696;SDS011;14312;52.614;13.496;2022-10-16T03:36:27;0.82;;;0.82;;
26696;SDS011;14312;52.614;13.496;2022-10-16T03:39:13;0.70;;;0.70;;
26696;SDS011;14312;52.614;13.496;2022-10-16T03:41:59;0.90;;;0.90;;
26696;SDS011;14312;52.614;13.496;2022-10-16T03:44:45;1.95;;;1.00;;
26696;SDS011;14312;52.614;13.496;2022-10-16T03:47:31;0.80;;;0.80;;
26696;SDS011;14312;52.614;13.496;2022-10-16T03:50:18;0.85;;;0.85;;
26696;SDS011;14312;52.614;13.496;2022-10-16T03:53:09;0.85;;;0.82;;
26696;SDS011;14312;52.614;13.496;2022-10-16T03:55:55;1.10;;;1.08;;
26696;SDS011;14312;52.614;13.496;2022-10-16T03:58:40;0.90;;;0.90;;
26696;SDS011;14312;52.614;13.496;2022-10-16T04:01:28;0.85;;;0.85;;
26696;SDS011;14312;52.614;13.496;2022-10-16T04:04:14;1.08;;;1.00;;
26696;SDS011;14312;52.614;13.496;2022-10-16T04:07:00;1.10;;;1.00;;
26696;SDS011;14312;52.614;13.496;2022-10-16T04:09:45;1.20;;;1.10;;
26696;SDS011;14312;52.614;13.496;2022-10-16T04:12:31;1.27;;;1.17;;
26696;SDS011;14312;52.614;13.496;2022-10-16T04:15:17;0.95;;;0.95;;
26696;SDS011;14312;52.614;13.496;2022-10-16T04:18:03;1.10;;;1.00;;
26696;SDS011;14312;52.614;13.496;2022-10-16T04:20:49;1.02;;;0.93;;
26696;SDS011;14312;52.614;13.496;2022-10-16T04:23:34;0.85;;;0.85;;
26696;SDS011;14312;52.614;13.496;2022-10-16T04:26:20;1.02;;;1.02;;
26696;SDS011;14312;52.614;13.496;2022-10-16T04:29:06;1.15;;;1.13;;
26696;SDS011;14312;52.614;13.496;2022-10-16T04:31:52;1.00;;;1.00;;
26696;SDS011;14312;52.614;13.496;2022-10-16T04:34:39;1.30;;;1.20;;
26696;SDS011;14312;52.614;13.496;2022-10-16T04:37:25;1.00;;;1.00;;
26696;SDS011;14312;52.614;13.496;2022-10-16T04:40:12;1.50;;;1.40;;
26696;SDS011;14312;52.614;13.496;2022-10-16T04:42:58;1.88;;;1.52;;
26696;SDS011;14312;52.614;13.496;2022-10-16T04:45:44;1.40;;;1.30;;
26696;SDS011;14312;52.614;13.496;2022-10-16T04:48:30;1.30;;;1.20;;
26696;SDS011;14312;52.614;13.496;2022-10-16T04:51:16;1.50;;;1.40;;
26696;SDS011;14312;52.614;13.496;2022-10-16T04:54:02;1.40;;;1.30;;
26696;SDS011;14312;52.614;13.496;2022-10-16T04:56:47;1.25;;;1.15;;
26696;SDS011;14312;52.614;13.496;2022-10-16T04:59:35;1.30;;;1.20;;
26696;SDS011;14312;52.614;13.496;2022-10-16T05:02:21;1.10;;;1.10;;
26696;SDS011;14312;52.614;13.496;2022-10-16T05:05:07;1.30;;;1.20;;
26696;SDS011;14312;52.614;13.496;2022-10-16T05:07:52;1.30;;;1.20;;
26696;SDS011;14312;52.614;13.496;2022-10-16T05:10:38;1.20;;;1.10;;
26696;SDS011;14312;52.614;13.496;2022-10-16T05:13:26;1.10;;;1.05;;
26696;SDS011;14312;52.614;13.496;2022-10-16T05:16:13;1.13;;;1.05;;
26696;SDS011;14312;52.614;13.496;2022-10-16T05:18:58;1.30;;;1.20;;
26696;SDS011;14312;52.614;13.496;2022-10-16T05:21:44;1.40;;;1.30;;
26696;SDS011;14312;52.614;13.496;2022-10-16T05:24:30;1.33;;;1.23;;
26696;SDS011;14312;52.614;13.496;2022-10-16T05:27:15;1.38;;;1.27;;
26696;SDS011;14312;52.614;13.496;2022-10-16T05:30:04;1.50;;;1.40;;
26696;SDS011;14312;52.614;13.496;2022-10-16T05:32:51;1.50;;;1.40;;
26696;SDS011;14312;52.614;13.496;2022-10-16T05:35:36;1.50;;;1.40;;
26696;SDS011;14312;52.614;13.496;2022-10-16T05:38:22;1.40;;;1.30;;
26696;SDS011;14312;52.614;13.496;2022-10-16T05:41:08;1.50;;;1.40;;
26696;SDS011;14312;52.614;13.496;2022-10-16T05:43:55;1.52;;;1.42;;
26696;SDS011;14312;52.614;13.496;2022-10-16T05:46:41;1.55;;;1.45;;
26696;SDS011;14312;52.614;13.496;2022-10-16T05:49:27;1.65;;;1.55;;
26696;SDS011;14312;52.614;13.496;2022-10-16T05:52:12;1.63;;;1.52;;
26696;SDS011;14312;52.614;13.496;2022-10-16T05:54:58;1.70;;;1.60;;
26696;SDS011;14312;52.614;13.496;2022-10-16T05:57:45;1.80;;;1.60;;
26696;SDS011;14312;52.614;13.496;2022-10-16T06:00:31;2.00;;;1.70;;
26696;SDS011;14312;52.614;13.496;2022-10-16T06:03:17;1.85;;;1.63;;
26696;SDS011;14312;52.614;13.496;2022-10-16T06:08:55;1.20;;;1.10;;
26696;SDS011;14312;52.614;13.496;2022-10-16T06:11:42;1.52;;;1.42;;
26696;SDS011;14312;52.614;13.496;2022-10-16T06:14:28;1.20;;;1.10;;
26696;SDS011;14312;52.614;13.496;2022-10-16T06:17:14;1.50;;;1.40;;
26696;SDS011;14312;52.614;13.496;2022-10-16T06:20:00;1.95;;;1.60;;
26696;SDS011;14312;52.614;13.496;2022-10-16T06:22:46;2.58;;;1.48;;
26696;SDS011;14312;52.614;13.496;2022-10-16T06:25:31;1.42;;;1.33;;
26696;SDS011;14312;52.614;13.496;2022-10-16T06:28:20;1.80;;;1.42;;
26696;SDS011;14312;52.614;13.496;2022-10-16T06:31:08;1.77;;;1.67;;
26696;SDS011;14312;52.614;13.496;2022-10-16T06:33:55;1.63;;;1.52;;
26696;SDS011;14312;52.614;13.496;2022-10-16T06:36:41;2.55;;;1.70;;
26696;SDS011;14312;52.614;13.496;2022-10-16T06:39:28;1.77;;;1.67;;
26696;SDS011;14312;52.614;13.496;2022-10-16T06:42:14;1.67;;;1.58;;
26696;SDS011;14312;52.614;13.496;2022-10-16T06:45:00;1.90;;;1.50;;
26696;SDS011;14312;52.614;13.496;2022-10-16T06:47:47;2.20;;;1.70;;
26696;SDS011;14312;52.614;13.496;2022-10-16T06:50:32;1.38;;;1.27;;
26696;SDS011;14312;52.614;13.496;2022-10-16T06:53:18;1.70;;;1.60;;
26696;SDS011;14312;52.614;13.496;2022-10-16T06:56:11;1.77;;;1.67;;
26696;SDS011;14312;52.614;13.496;2022-10-16T06:59:08;1.75;;;1.65;;
26696;SDS011;14312;52.614;13.496;2022-10-16T07:01:59;1.50;;;1.40;;
26696;SDS011;14312;52.614;13.496;2022-10-16T07:04:44;1.90;;;1.48;;
26696;SDS011;14312;52.614;13.496;2022-10-16T07:07:30;1.50;;;1.40;;
26696;SDS011;14312;52.614;13.496;2022-10-16T07:10:16;1.40;;;1.30;;
26696;SDS011;14312;52.614;13.496;2022-10-16T07:13:02;1.80;;;1.70;;
26696;SDS011;14312;52.614;13.496;2022-10-16T07:15:48;1.63;;;1.52;;
26696;SDS011;14312;52.614;13.496;2022-10-16T07:18:34;1.75;;;1.63;;
26696;SDS011;14312;52.614;13.496;2022-10-16T07:21:25;2.20;;;2.00;;
26696;SDS011;14312;52.614;13.496;2022-10-16T07:24:14;2.15;;;1.70;;
26696;SDS011;14312;52.614;13.496;2022-10-16T07:27:01;3.00;;;1.70;;
26696;SDS011;14312;52.614;13.496;2022-10-16T07:29:50;1.60;;;1.50;;
26696;SDS011;14312;52.614;13.496;2022-10-16T07:32:35;1.65;;;1.50;;
26696;SDS011;14312;52.614;13.496;2022-10-16T07:35:24;3.50;;;1.77;;
26696;SDS011;14312;52.614;13.496;2022-10-16T07:38:09;1.80;;;1.70;;
26696;SDS011;14312;52.614;13.496;2022-10-16T07:41:05;1.90;;;1.70;;
26696;SDS011;14312;52.614;13.496;2022-10-16T07:43:52;1.52;;;1.40;;
26696;SDS011;14312;52.614;13.496;2022-10-16T07:46:39;1.55;;;1.45;;
26696;SDS011;14312;52.614;13.496;2022-10-16T07:49:25;1.38;;;1.27;;
26696;SDS011;14312;52.614;13.496;2022-10-16T07:52:16;1.30;;;1.20;;
26696;SDS011;14312;52.614;13.496;2022-10-16T07:55:01;1.48;;;1.33;;
26696;SDS011;14312;52.614;13.496;2022-10-16T07:57:51;1.60;;;1.50;;
26696;SDS011;14312;52.614;13.496;2022-10-16T08:00:37;1.77;;;1.58;;
26696;SDS011;14312;52.614;13.496;2022-10-16T08:03:23;1.70;;;1.60;;
26696;SDS011;14312;52.614;13.496;2022-10-16T08:06:09;2.28;;;2.08;;
26696;SDS011;14312;52.614;13.496;2022-10-16T08:08:55;1.50;;;1.40;;
26696;SDS011;14312;52.614;13.496;2022-10-16T08:11:41;1.50;;;1.40;;
26696;SDS011;14312;52.614;13.496;2022-10-16T08:14:27;1.48;;;1.38;;
26696;SDS011;14312;52.614;13.496;2022-10-16T08:17:13;1.60;;;1.50;;
26696;SDS011;14312;52.614;13.496;2022-10-16T08:19:59;1.42;;;1.20;;
26696;SDS011;14312;52.614;13.496;2022-10-16T08:22:45;1.52;;;1.40;;
26696;SDS011;14312;52.614;13.496;2022-10-16T08:25:31;1.35;;;1.25;;
26696;SDS011;14312;52.614;13.496;2022-10-16T08:28:16;2.20;;;1.50;;
26696;SDS011;14312;52.614;13.496;2022-10-16T08:31:12;1.50;;;1.40;;
26696;SDS011;14312;52.614;13.496;2022-10-16T08:34:00;3.05;;;1.50;;
26696;SDS011;14312;52.614;13.496;2022-10-16T08:36:46;1.65;;;1.55;;
26696;SDS011;14312;52.614;13.496;2022-10-16T08:39:31;1.50;;;1.40;;
26696;SDS011;14312;52.614;13.496;2022-10-16T08:48:46;1.70;;;1.10;;
26696;SDS011;14312;52.614;13.496;2022-10-16T08:51:35;1.42;;;1.13;;
26696;SDS011;14312;52.614;13.496;2022-10-16T08:54:37;1.30;;;1.20;;
26696;SDS011;14312;52.614;13.496;2022-10-16T08:57:29;1.50;;;1.20;;
26696;SDS011;14312;52.614;13.496;2022-10-16T09:00:16;1.20;;;1.10;;
26696;SDS011;14312;52.614;13.496;2022-10-16T09:06:41;1.08;;;0.80;;
26696;SDS011;14312;52.614;13.496;2022-10-16T09:15:39;1.27;;;1.10;;
26696;SDS011;14312;52.614;13.496;2022-10-16T09:18:47;1.83;;;1.10;;
26696;SDS011;14312;52.614;13.496;2022-10-16T09:21:42;2.47;;;1.10;;
26696;SDS011;14312;52.614;13.496;2022-10-16T09:24:30;1.30;;;1.20;;
26696;SDS011;14312;52.614;13.496;2022-10-16T09:27:16;1.52;;;1.27;;
26696;SDS011;14312;52.614;13.496;2022-10-16T09:30:06;1.77;;;1.15;;
26696;SDS011;14312;52.614;13.496;2022-10-16T09:32:57;1.30;;;1.20;;
26696;SDS011;14312;52.614;13.496;2022-10-16T09:35:44;1.25;;;1.15;;
26696;SDS011;14312;52.614;13.496;2022-10-16T09:38:33;1.33;;;1.10;;
26696;SDS011;14312;52.614;13.496;2022-10-16T09:41:24;1.00;;;1.00;;
26696;SDS011;14312;52.614;13.496;2022-10-16T09:44:16;1.23;;;1.08;;
26696;SDS011;14312;52.614;13.496;2022-10-16T09:47:04;1.58;;;1.10;;
26696;SDS011;14312;52.614;13.496;2022-10-16T09:49:58;1.55;;;1.08;;
26696;SDS011;14312;52.614;13.496;2022-10-16T09:52:47;1.27;;;1.17;;
26696;SDS011;14312;52.614;13.496;2022-10-16T09:55:33;1.38;;;1.20;;
26696;SDS011;14312;52.614;13.496;2022-10-16T09:58:23;0.98;;;0.98;;
26696;SDS011;14312;52.614;13.496;2022-10-16T10:01:11;1.27;;;1.20;;
26696;SDS011;14312;52.614;13.496;2022-10-16T10:04:01;0.95;;;0.95;;
26696;SDS011;14312;52.614;13.496;2022-10-16T10:06:52;1.17;;;1.08;;
26696;SDS011;14312;52.614;13.496;2022-10-16T10:09:42;1.50;;;1.30;;
26696;SDS011;14312;52.614;13.496;2022-10-16T10:12:31;1.20;;;1.10;;
26696;SDS011;14312;52.614;13.496;2022-10-16T10:15:20;1.83;;;1.10;;
26696;SDS011;14312;52.614;13.496;2022-10-16T10:18:18;2.28;;;1.13;;
26696;SDS011;14312;52.614;13.496;2022-10-16T10:21:12;1.10;;;1.00;;
26696;SDS011;14312;52.614;13.496;2022-10-16T10:24:00;1.23;;;1.10;;
26696;SDS011;14312;52.614;13.496;2022-10-16T10:36:34;0.90;;;0.90;;
26696;SDS011;14312;52.614;13.496;2022-10-16T10:39:22;1.10;;;1.00;;
26696;SDS011;14312;52.614;13.496;2022-10-16T10:45:42;1.13;;;1.02;;
26696;SDS011;14312;52.614;13.496;2022-10-16T10:48:43;1.00;;;1.00;;
26696;SDS011;14312;52.614;13.496;2022-10-16T10:51:39;2.00;;;1.10;;
26696;SDS011;14312;52.614;13.496;2022-10-16T11:01:41;1.23;;;1.13;;
26696;SDS011;14312;52.614;13.496;2022-10-16T11:05:22;1.00;;;0.90;;
26696;SDS011;14312;52.614;13.496;2022-10-16T11:08:34;0.77;;;0.73;;
26696;SDS011;14312;52.614;13.496;2022-10-16T11:14:40;1.00;;;1.00;;
26696;SDS011;14312;52.614;13.496;2022-10-16T11:17:34;1.10;;;0.98;;
26696;SDS011;14312;52.614;13.496;2022-10-16T11:21:02;0.80;;;0.80;;
26696;SDS011;14312;52.614;13.496;2022-10-16T11:24:15;1.05;;;1.00;;
26696;SDS011;14312;52.614;13.496;2022-10-16T11:26:57;1.17;;;1.00;;
26696;SDS011;14312;52.614;13.496;2022-10-16T11:29:52;0.77;;;0.77;;
26696;SDS011;14312;52.614;13.496;2022-10-16T11:33:08;1.13;;;1.00;;
26696;SDS011;14312;52.614;13.496;2022-10-16T11:36:13;0.88;;;0.88;;
26696;SDS011;14312;52.614;13.496;2022-10-16T11:39:21;1.30;;;0.90;;
26696;SDS011;14312;52.614;13.496;2022-10-16T11:42:22;0.80;;;0.80;;
26696;SDS011;14312;52.614;13.496;2022-10-16T11:45:22;2.05;;;0.80;;
26696;SDS011;14312;52.614;13.496;2022-10-16T11:48:27;1.00;;;0.90;;
26696;SDS011;14312;52.614;13.496;2022-10-16T11:52:06;0.73;;;0.73;;
26696;SDS011;14312;52.614;13.496;2022-10-16T11:57:57;0.85;;;0.85;;
26696;SDS011;14312;52.614;13.496;2022-10-16T12:00:57;1.02;;;1.02;;
26696;SDS011;14312;52.614;13.496;2022-10-16T12:04:02;0.93;;;0.90;;
26696;SDS011;14312;52.614;13.496;2022-10-16T12:07:02;0.70;;;0.70;;
26696;SDS011;14312;52.614;13.496;2022-10-16T12:09:53;1.48;;;0.90;;
26696;SDS011;14312;52.614;13.496;2022-10-16T12:12:41;0.60;;;0.60;;
26696;SDS011;14312;52.614;13.496;2022-10-16T12:15:31;0.70;;;0.70;;
26696;SDS011;14312;52.614;13.496;2022-10-16T12:18:21;0.80;;;0.80;;
26696;SDS011;14312;52.614;13.496;2022-10-16T12:21:09;0.82;;;0.65;;
26696;SDS011;14312;52.614;13.496;2022-10-16T12:23:56;0.63;;;0.63;;
26696;SDS011;14312;52.614;13.496;2022-10-16T12:26:51;0.80;;;0.80;;
26696;SDS011;14312;52.614;13.496;2022-10-16T12:29:38;1.48;;;0.60;;
26696;SDS011;14312;52.614;13.496;2022-10-16T12:32:35;0.70;;;0.70;;
26696;SDS011;14312;52.614;13.496;2022-10-16T12:35:24;1.40;;;0.90;;
26696;SDS011;14312;52.614;13.496;2022-10-16T12:38:24;0.63;;;0.63;;
26696;SDS011;14312;52.614;13.496;2022-10-16T12:41:12;0.90;;;0.77;;
26696;SDS011;14312;52.614;13.496;2022-10-16T12:44:23;0.70;;;0.70;;
26696;SDS011;14312;52.614;13.496;2022-10-16T12:47:19;0.70;;;0.70;;
26696;SDS011;14312;52.614;13.496;2022-10-16T12:50:29;0.77;;;0.77;;
26696;SDS011;14312;52.614;13.496;2022-10-16T12:53:21;0.85;;;0.85;;
26696;SDS011;14312;52.614;13.496;2022-10-16T12:56:21;0.77;;;0.77;;
26696;SDS011;14312;52.614;13.496;2022-10-16T12:59:18;0.93;;;0.80;;
26696;SDS011;14312;52.614;13.496;2022-10-16T13:05:54;1.00;;;0.68;;
26696;SDS011;14312;52.614;13.496;2022-10-16T13:11:35;0.70;;;0.70;;
26696;SDS011;14312;52.614;13.496;2022-10-16T13:18:29;3.13;;;0.70;;
26696;SDS011;14312;52.614;13.496;2022-10-16T13:21:30;0.60;;;0.60;;
26696;SDS011;14312;52.614;13.496;2022-10-16T13:27:35;0.70;;;0.55;;
26696;SDS011;14312;52.614;13.496;2022-10-16T13:30:26;0.50;;;0.50;;
26696;SDS011;14312;52.614;13.496;2022-10-16T13:33:15;0.57;;;0.57;;
26696;SDS011;14312;52.614;13.496;2022-10-16T13:36:05;0.60;;;0.60;;
26696;SDS011;14312;52.614;13.496;2022-10-16T13:39:06;0.70;;;0.70;;
26696;SDS011;14312;52.614;13.496;2022-10-16T13:42:00;0.60;;;0.60;;
26696;SDS011;14312;52.614;13.496;2022-10-16T13:44:47;0.70;;;0.70;;
26696;SDS011;14312;52.614;13.496;2022-10-16T13:47:35;0.50;;;0.50;;
26696;SDS011;14312;52.614;13.496;2022-10-16T13:50:20;0.60;;;0.60;;
26696;SDS011;14312;52.614;13.496;2022-10-16T13:53:09;0.55;;;0.55;;
26696;SDS011;14312;52.614;13.496;2022-10-16T13:55:59;0.60;;;0.60;;
26696;SDS011;14312;52.614;13.496;2022-10-16T13:58:45;1.80;;;0.50;;
26696;SDS011;14312;52.614;13.496;2022-10-16T14:01:33;1.13;;;0.70;;
26696;SDS011;14312;52.614;13.496;2022-10-16T14:04:30;0.52;;;0.52;;
26696;SDS011;14312;52.614;13.496;2022-10-16T14:07:20;1.48;;;0.65;;
26696;SDS011;14312;52.614;13.496;2022-10-16T14:10:22;1.02;;;0.68;;
26696;SDS011;14312;52.614;13.496;2022-10-16T14:13:16;1.85;;;0.60;;
26696;SDS011;14312;52.614;13.496;2022-10-16T14:16:06;0.50;;;0.50;;
26696;SDS011;14312;52.614;13.496;2022-10-16T14:18:58;0.65;;;0.60;;
26696;SDS011;14312;52.614;13.496;2022-10-16T14:21:53;0.55;;;0.55;;
26696;SDS011;14312;52.614;13.496;2022-10-16T14:24:39;0.60;;;0.60;;
26696;SDS011;14312;52.614;13.496;2022-10-16T14:27:32;0.63;;;0.50;;
26696;SDS011;14312;52.614;13.496;2022-10-16T14:30:21;1.27;;;0.55;;
26696;SDS011;14312;52.614;13.496;2022-10-16T14:33:24;0.60;;;0.60;;
26696;SDS011;14312;52.614;13.496;2022-10-16T14:41:50;0.60;;;0.60;;
26696;SDS011;14312;52.614;13.496;2022-10-16T14:44:38;0.50;;;0.50;;
26696;SDS011;14312;52.614;13.496;2022-10-16T14:47:25;0.60;;;0.60;;
26696;SDS011;14312;52.614;13.496;2022-10-16T14:50:12;0.60;;;0.60;;
26696;SDS011;14312;52.614;13.496;2022-10-16T14:52:58;0.52;;;0.52;;
26696;SDS011;14312;52.614;13.496;2022-10-16T14:55:44;0.68;;;0.68;;
26696;SDS011;14312;52.614;13.496;2022-10-16T14:58:30;0.60;;;0.60;;
26696;SDS011;14312;52.614;13.496;2022-10-16T15:01:16;0.70;;;0.70;;
26696;SDS011;14312;52.614;13.496;2022-10-16T15:04:03;0.80;;;0.80;;
26696;SDS011;14312;52.614;13.496;2022-10-16T15:06:48;0.50;;;0.50;;
26696;SDS011;14312;52.614;13.496;2022-10-16T15:09:34;0.65;;;0.63;;
26696;SDS011;14312;52.614;13.496;2022-10-16T15:12:20;0.80;;;0.80;;
26696;SDS011;14312;52.614;13.496;2022-10-16T15:15:48;0.70;;;0.70;;
26696;SDS011;14312;52.614;13.496;2022-10-16T15:18:18;0.65;;;0.65;;
26696;SDS011;14312;52.614;13.496;2022-10-16T15:21:05;0.75;;;0.75;;
26696;SDS011;14312;52.614;13.496;2022-10-16T15:23:51;0.95;;;0.95;;
26696;SDS011;14312;52.614;13.496;2022-10-16T15:26:37;0.90;;;0.90;;
26696;SDS011;14312;52.614;13.496;2022-10-16T15:29:24;0.98;;;0.98;;
26696;SDS011;14312;52.614;13.496;2022-10-16T15:32:10;1.50;;;0.85;;
26696;SDS011;14312;52.614;13.496;2022-10-16T15:34:56;0.82;;;0.60;;
26696;SDS011;14312;52.614;13.496;2022-10-16T15:37:41;1.13;;;0.85;;
26696;SDS011;14312;52.614;13.496;2022-10-16T15:40:27;0.55;;;0.55;;
26696;SDS011;14312;52.614;13.496;2022-10-16T15:43:13;0.85;;;0.70;;
26696;SDS011;14312;52.614;13.496;2022-10-16T15:46:01;1.48;;;0.80;;
26696;SDS011;14312;52.614;13.496;2022-10-16T15:48:49;0.70;;;0.70;;
26696;SDS011;14312;52.614;13.496;2022-10-16T15:51:38;0.73;;;0.70;;
26696;SDS011;14312;52.614;13.496;2022-10-16T15:54:25;0.68;;;0.68;;
26696;SDS011;14312;52.614;13.496;2022-10-16T15:57:10;0.60;;;0.60;;
26696;SDS011;14312;52.614;13.496;2022-10-16T15:59:56;0.88;;;0.70;;
26696;SDS011;14312;52.614;13.496;2022-10-16T16:02:42;1.00;;;0.90;;
26696;SDS011;14312;52.614;13.496;2022-10-16T16:05:28;1.05;;;0.90;;
26696;SDS011;14312;52.614;13.496;2022-10-16T16:08:14;0.77;;;0.77;;
26696;SDS011;14312;52.614;13.496;2022-10-16T16:11:00;0.95;;;0.90;;
26696;SDS011;14312;52.614;13.496;2022-10-16T16:13:49;0.70;;;0.70;;
26696;SDS011;14312;52.614;13.496;2022-10-16T16:16:35;0.80;;;0.80;;
26696;SDS011;14312;52.614;13.496;2022-10-16T16:19:23;0.90;;;0.90;;
26696;SDS011;14312;52.614;13.496;2022-10-16T16:22:08;0.93;;;0.93;;
26696;SDS011;14312;52.614;13.496;2022-10-16T16:24:54;1.35;;;1.25;;
26696;SDS011;14312;52.614;13.496;2022-10-16T16:27:40;2.38;;;1.50;;
26696;SDS011;14312;52.614;13.496;2022-10-16T16:30:25;1.75;;;1.65;;
26696;SDS011;14312;52.614;13.496;2022-10-16T16:33:11;1.90;;;1.80;;
26696;SDS011;14312;52.614;13.496;2022-10-16T16:36:02;2.00;;;1.90;;
26696;SDS011;14312;52.614;13.496;2022-10-16T16:38:49;1.75;;;1.65;;
26696;SDS011;14312;52.614;13.496;2022-10-16T16:41:35;1.75;;;1.65;;
26696;SDS011;14312;52.614;13.496;2022-10-16T16:44:21;2.03;;;1.92;;
26696;SDS011;14312;52.614;13.496;2022-10-16T16:47:06;2.72;;;1.95;;
26696;SDS011;14312;52.614;13.496;2022-10-16T16:49:52;2.28;;;2.08;;
26696;SDS011;14312;52.614;13.496;2022-10-16T16:52:38;2.30;;;2.08;;
26696;SDS011;14312;52.614;13.496;2022-10-16T16:55:24;2.08;;;1.98;;
26696;SDS011;14312;52.614;13.496;2022-10-16T16:58:09;2.15;;;1.95;;
26696;SDS011;14312;52.614;13.496;2022-10-16T17:00:55;2.60;;;2.40;;
26696;SDS011;14312;52.614;13.496;2022-10-16T17:03:42;2.60;;;2.40;;
26696;SDS011;14312;52.614;13.496;2022-10-16T17:06:34;2.58;;;2.20;;
26696;SDS011;14312;52.614;13.496;2022-10-16T17:09:20;3.08;;;2.13;;
26696;SDS011;14312;52.614;13.496;2022-10-16T17:12:06;3.58;;;2.10;;
26696;SDS011;14312;52.614;13.496;2022-10-16T17:14:53;2.30;;;2.10;;
26696;SDS011;14312;52.614;13.496;2022-10-16T17:17:39;2.50;;;2.03;;
26696;SDS011;14312;52.614;13.496;2022-10-16T17:20:25;2.63;;;2.42;;
26696;SDS011;14312;52.614;13.496;2022-10-16T17:23:11;2.13;;;1.90;;
26696;SDS011;14312;52.614;13.496;2022-10-16T17:26:02;2.63;;;2.40;;
26696;SDS011;14312;52.614;13.496;2022-10-16T17:28:50;3.20;;;2.83;;
26696;SDS011;14312;52.614;13.496;2022-10-16T17:31:42;2.95;;;2.65;;
26696;SDS011;14312;52.614;13.496;2022-10-16T17:34:29;3.75;;;2.63;;
26696;SDS011;14312;52.614;13.496;2022-10-16T17:37:14;4.65;;;2.40;;
26696;SDS011;14312;52.614;13.496;2022-10-16T17:40:00;2.97;;;2.38;;
26696;SDS011;14312;52.614;13.496;2022-10-16T17:42:46;2.72;;;2.10;;
26696;SDS011;14312;52.614;13.496;2022-10-16T17:45:35;2.60;;;2.40;;
26696;SDS011;14312;52.614;13.496;2022-10-16T17:48:22;2.38;;;2.17;;
26696;SDS011;14312;52.614;13.496;2022-10-16T17:51:09;2.85;;;2.65;;
26696;SDS011;14312;52.614;13.496;2022-10-16T17:53:57;2.92;;;2.63;;
26696;SDS011;14312;52.614;13.496;2022-10-16T17:56:45;2.67;;;2.47;;
26696;SDS011;14312;52.614;13.496;2022-10-16T17:59:36;2.72;;;2.53;;
26696;SDS011;14312;52.614;13.496;2022-10-16T18:02:22;2.78;;;2.47;;
26696;SDS011;14312;52.614;13.496;2022-10-16T18:05:08;2.70;;;2.50;;
26696;SDS011;14312;52.614;13.496;2022-10-16T18:07:54;3.10;;;2.88;;